Time;durP1;ratioP1;P1;durP2;ratioP2;P2;SDS_P1;SDS_P2;PMS_P1;PMS_P2;Temp;Humidity;BMP_temperature;BMP_pressure;BME280_temperature;BME280_humidity;BME280_pressure;Samples;Min_cycle;Max_cycle;Signal;HPM_P1;HPM_P2
2022/12/14 00:00:47;;;;;;;42.55;18.40;;;;;;;-6.36;52.36;100728.16;5035739;28;20278;-73
2022/12/14 00:03:14;;;;;;;48.38;19.40;;;;;;;-6.45;52.52;100739.81;5043863;28;20049;-72
2022/12/14 00:05:40;;;;;;;50.05;19.58;;;;;;;-6.36;52.40;100733.25;5026887;28;21724;-72
2022/12/14 00:08:06;;;;;;;53.53;20.70;;;;;;;-6.42;52.44;100734.81;5031856;28;20128;-65
2022/12/14 00:10:32;;;;;;;55.67;21.58;;;;;;;-6.60;52.92;100734.28;5027401;28;20033;-65
2022/12/14 00:12:59;;;;;;;46.58;21.40;;;;;;;-6.46;52.68;100727.91;5024193;28;20093;-65
2022/12/14 00:15:25;;;;;;;48.80;18.25;;;;;;;-6.44;52.63;100726.28;5027618;28;20037;-65
2022/12/14 00:17:50;;;;;;;49.40;19.02;;;;;;;-6.40;52.69;100722.13;5027329;28;20041;-65
2022/12/14 00:20:15;;;;;;;44.70;19.65;;;;;;;-6.37;52.53;100722.22;5026786;28;20395;-65
2022/12/14 00:22:41;;;;;;;42.75;19.42;;;;;;;-6.32;52.32;100717.25;5026694;28;20038;-64
2022/12/14 00:25:07;;;;;;;59.83;21.08;;;;;;;-6.34;52.28;100721.44;5027122;28;20063;-65
2022/12/14 00:27:32;;;;;;;50.63;19.55;;;;;;;-6.46;52.39;100712.66;5027510;28;20653;-67
2022/12/14 00:29:58;;;;;;;53.08;19.33;;;;;;;-6.60;52.67;100716.47;5019139;28;20102;-69
2022/12/14 00:32:23;;;;;;;45.88;18.25;;;;;;;-6.42;52.39;100714.47;5024494;28;20060;-67
2022/12/14 00:34:49;;;;;;;42.40;17.08;;;;;;;-6.47;52.44;100710.91;5028378;28;20033;-69
2022/12/14 00:37:14;;;;;;;46.25;18.42;;;;;;;-6.45;52.32;100710.97;5025370;28;20228;-67
2022/12/14 00:39:40;;;;;;;56.10;18.08;;;;;;;-6.36;52.16;100697.66;5026158;28;20337;-66
2022/12/14 00:42:06;;;;;;;48.95;18.88;;;;;;;-6.45;51.99;100699.09;5025923;28;20068;-67
2022/12/14 00:44:32;;;;;;;43.38;17.92;;;;;;;-6.50;52.20;100699.81;5027626;28;20134;-68
2022/12/14 00:46:57;;;;;;;47.85;16.38;;;;;;;-6.60;52.14;100694.50;5024477;28;20159;-67
2022/12/14 00:49:23;;;;;;;47.88;16.30;;;;;;;-6.56;52.09;100699.66;5008164;28;20626;-67
2022/12/14 00:51:48;;;;;;;42.15;17.25;;;;;;;-6.49;51.91;100699.00;5025111;28;20036;-65
2022/12/14 00:54:14;;;;;;;38.15;16.08;;;;;;;-6.48;51.82;100706.66;5025709;28;20032;-66
2022/12/14 00:56:39;;;;;;;46.83;18.13;;;;;;;-6.61;51.70;100705.47;5023087;28;20062;-68
2022/12/14 00:59:05;;;;;;;43.22;16.67;;;;;;;-6.72;51.90;100698.38;5026786;28;20527;-68
2022/12/14 01:01:30;;;;;;;37.55;17.35;;;;;;;-6.76;51.68;100699.94;5026297;28;20037;-67
2022/12/14 01:04:15;;;;;;;35.00;15.30;;;;;;;-6.95;51.91;100698.56;5025175;28;20053;-68
2022/12/14 01:06:46;;;;;;;46.70;17.23;;;;;;;-7.10;52.10;100690.50;5024967;28;20037;-66
2022/12/14 01:09:12;;;;;;;39.78;15.95;;;;;;;-7.18;51.97;100687.72;5025896;28;20268;-66
2022/12/14 01:11:38;;;;;;;43.00;15.60;;;;;;;-7.25;52.00;100684.13;5023246;28;20048;-66
2022/12/14 01:14:04;;;;;;;39.33;16.17;;;;;;;-7.35;52.29;100678.75;5027336;28;20055;-65
2022/12/14 01:16:29;;;;;;;41.78;16.50;;;;;;;-7.45;52.44;100682.66;5024452;28;20413;-66
2022/12/14 01:18:58;;;;;;;39.92;16.77;;;;;;;-7.42;52.34;100678.56;5024824;28;20183;-64
2022/12/14 01:21:23;;;;;;;42.42;18.45;;;;;;;-7.41;52.29;100679.41;5025633;28;20074;-65
2022/12/14 01:23:55;;;;;;;46.17;17.90;;;;;;;-7.45;52.14;100680.13;5031461;28;20441;-65
2022/12/14 01:26:21;;;;;;;40.28;17.08;;;;;;;-7.48;52.21;100675.84;5039602;28;20037;-64
2022/12/14 01:28:55;;;;;;;40.25;16.02;;;;;;;-7.31;52.19;100675.50;5022919;28;20064;-65
2022/12/14 01:31:23;;;;;;;37.95;15.48;;;;;;;-7.35;51.99;100672.00;5005188;28;20087;-66
2022/12/14 01:33:48;;;;;;;48.75;17.17;;;;;;;-7.27;52.21;100670.56;5021372;28;20075;-67
2022/12/14 01:36:24;;;;;;;37.25;16.27;;;;;;;-7.26;52.00;100676.50;5025616;28;20040;-66
2022/12/14 01:38:55;;;;;;;38.55;15.90;;;;;;;-7.34;51.71;100671.16;5026138;28;20469;-66
2022/12/14 01:41:27;;;;;;;43.28;16.40;;;;;;;-7.40;51.90;100675.19;5024345;28;20125;-67
2022/12/14 01:43:58;;;;;;;45.90;17.10;;;;;;;-7.52;52.17;100675.69;5024106;28;20449;-66
2022/12/14 01:46:32;;;;;;;38.88;17.70;;;;;;;-7.58;52.24;100681.47;5024314;28;20037;-65
2022/12/14 01:49:33;;;;;;;43.35;15.95;;;;;;;-7.49;52.55;100675.78;5026029;28;20037;-66
2022/12/14 01:52:11;;;;;;;45.70;18.05;;;;;;;-7.49;52.42;100670.69;5016687;28;20053;-66
2022/12/14 01:54:42;;;;;;;42.55;17.90;;;;;;;-7.48;52.99;100662.28;5023964;28;20040;-66
2022/12/14 01:57:10;;;;;;;40.38;16.10;;;;;;;-7.38;52.67;100663.41;5031227;28;20068;-65
2022/12/14 01:59:41;;;;;;;50.58;17.60;;;;;;;-7.36;52.26;100661.78;5013370;28;20056;-66
2022/12/14 02:02:10;;;;;;;34.75;17.40;;;;;;;-7.52;52.55;100657.91;5018606;28;20686;-66
2022/12/14 02:04:41;;;;;;;42.65;16.20;;;;;;;-7.60;52.62;100656.81;5023686;28;20558;-68
2022/12/14 02:07:08;;;;;;;42.90;16.30;;;;;;;-7.55;52.59;100658.69;5022406;28;20102;-66
2022/12/14 02:09:37;;;;;;;45.55;17.52;;;;;;;-7.64;52.58;100653.34;5025004;28;20091;-68
2022/12/14 02:12:09;;;;;;;42.67;18.02;;;;;;;-7.64;52.61;100654.19;5014753;28;20441;-68
2022/12/14 02:14:35;;;;;;;28.13;13.13;;;;;;;-7.63;52.31;100653.41;5025564;28;20051;-67
2022/12/14 02:17:01;;;;;;;37.83;16.13;;;;;;;-7.67;52.22;100649.03;5024883;28;20460;-67
2022/12/14 02:19:27;;;;;;;40.92;14.57;;;;;;;-7.79;52.62;100642.72;5027541;28;20394;-65
2022/12/14 02:22:15;;;;;;;34.10;16.63;;;;;;;-7.87;52.67;100644.97;5023074;28;22103;-66
2022/12/14 02:25:03;;;;;;;36.88;15.45;;;;;;;-7.89;52.82;100639.88;5024024;28;20045;-64
2022/12/14 02:27:28;;;;;;;41.75;15.77;;;;;;;-7.92;52.55;100638.91;5029130;28;20410;-68
2022/12/14 02:30:00;;;;;;;38.60;16.48;;;;;;;-8.01;52.84;100628.47;5027534;28;20025;-73
2022/12/14 02:32:53;;;;;;;29.05;13.00;;;;;;;-8.01;52.74;100631.00;5035922;28;20068;-72
2022/12/14 02:35:36;;;;;;;39.47;15.65;;;;;;;-8.00;52.81;100630.22;5042720;28;20040;-73
2022/12/14 02:38:26;;;;;;;36.28;16.08;;;;;;;-8.10;52.92;100629.88;5028265;28;20477;-72
2022/12/14 02:40:59;;;;;;;40.70;15.50;;;;;;;-8.03;52.51;100635.16;5028422;28;20040;-66
2022/12/14 02:43:41;;;;;;;36.42;15.95;;;;;;;-8.18;52.67;100626.25;5026780;28;20396;-66
2022/12/14 02:46:30;;;;;;;40.10;16.75;;;;;;;-8.18;52.71;100625.38;5029590;28;20363;-65
2022/12/14 02:48:55;;;;;;;35.72;17.10;;;;;;;-8.27;52.86;100619.22;5026757;28;20124;-65
2022/12/14 02:51:44;;;;;;;37.83;15.77;;;;;;;-8.31;52.87;100619.06;5024826;28;20041;-66
2022/12/14 02:54:16;;;;;;;43.08;17.60;;;;;;;-8.28;52.86;100616.63;5028723;28;20045;-64
2022/12/14 02:56:53;;;;;;;40.70;16.58;;;;;;;-8.29;52.76;100607.31;5034444;28;20033;-66
2022/12/14 02:59:19;;;;;;;38.58;14.75;;;;;;;-8.31;52.62;100608.94;5028360;28;20033;-66
2022/12/14 03:01:48;;;;;;;41.65;14.85;;;;;;;-8.33;52.75;100611.41;5035340;28;20040;-67
2022/12/14 03:04:15;;;;;;;52.42;15.82;;;;;;;-8.20;52.32;100610.13;5028778;28;20237;-71
2022/12/14 03:07:21;;;;;;;39.78;15.88;;;;;;;-8.22;52.12;100606.69;5030686;28;20319;-71
2022/12/14 03:09:46;;;;;;;35.90;14.65;;;;;;;-8.34;52.21;100608.81;5028578;28;20654;-70
2022/12/14 03:12:14;;;;;;;38.38;15.32;;;;;;;-8.33;52.27;100608.88;5032042;28;20071;-71
2022/12/14 03:14:46;;;;;;;35.65;15.13;;;;;;;-8.30;52.16;100603.88;5042663;28;20549;-70
2022/12/14 03:17:21;;;;;;;39.40;16.40;;;;;;;-8.24;51.94;100595.63;5031147;28;20413;-70
2022/12/14 03:19:55;;;;;;;39.45;16.42;;;;;;;-8.49;52.12;100591.44;5020942;28;20088;-70
2022/12/14 03:22:29;;;;;;;34.50;16.35;;;;;;;-8.62;52.53;100595.22;5028642;28;20041;-70
2022/12/14 03:25:01;;;;;;;38.65;16.52;;;;;;;-8.67;52.43;100589.16;5031204;28;20041;-70
2022/12/14 03:27:43;;;;;;;39.90;17.20;;;;;;;-8.72;52.54;100580.50;5028808;28;20049;-70
2022/12/14 03:30:12;;;;;;;38.20;14.68;;;;;;;-8.68;52.67;100572.19;5028266;28;20040;-70
2022/12/14 03:32:47;;;;;;;38.38;14.32;;;;;;;-8.72;52.97;100575.44;5034845;28;20136;-70
2022/12/14 03:35:38;;;;;;;38.47;16.08;;;;;;;-8.74;52.69;100572.00;5020905;28;20029;-70
2022/12/14 03:38:15;;;;;;;37.50;16.10;;;;;;;-8.75;52.41;100576.19;5029207;28;20126;-70
2022/12/14 03:41:01;;;;;;;33.28;14.27;;;;;;;-8.75;52.28;100570.28;5029204;28;20041;-70
2022/12/14 03:43:49;;;;;;;34.17;14.50;;;;;;;-8.77;52.77;100572.75;5019575;28;20474;-71
2022/12/14 03:46:48;;;;;;;31.63;14.32;;;;;;;-8.67;52.28;100563.81;5027224;28;20529;-71
2022/12/14 03:49:34;;;;;;;41.45;14.65;;;;;;;-8.78;52.31;100565.97;5028269;28;20541;-66
2022/12/14 03:52:06;;;;;;;31.17;14.07;;;;;;;-8.80;52.39;100566.72;5025750;28;20133;-65
2022/12/14 03:54:50;;;;;;;38.70;15.60;;;;;;;-8.76;52.15;100568.56;5025978;28;20037;-65
2022/12/14 03:57:21;;;;;;;39.33;14.32;;;;;;;-8.83;52.06;100564.06;5024181;28;20581;-66
2022/12/14 04:00:00;;;;;;;45.72;10.90;;;;;;;-8.81;52.05;100567.53;5027411;28;20036;-66
2022/12/14 04:02:33;;;;;;;36.22;13.20;;;;;;;-8.81;51.81;100565.00;5040541;28;20136;-66
2022/12/14 04:05:09;;;;;;;35.42;14.60;;;;;;;-8.84;51.75;100567.44;5035286;28;20041;-65
2022/12/14 04:07:45;;;;;;;35.22;14.38;;;;;;;-8.98;52.09;100556.84;5025198;28;20064;-65
2022/12/14 04:19:00;;;;;;;41.40;13.82;;;;;;;-9.06;52.38;100543.03;5025596;28;20061;-65
2022/12/14 04:21:44;;;;;;;32.72;14.80;;;;;;;-9.02;52.07;100543.19;5027459;28;20056;-69
2022/12/14 04:27:13;;;;;;;29.90;13.80;;;;;;;-8.85;51.66;100532.75;5026405;28;20041;-67
2022/12/14 04:29:55;;;;;;;31.45;13.10;;;;;;;-8.81;51.51;100529.53;5039591;28;20033;-67
2022/12/14 04:32:44;;;;;;;27.27;12.20;;;;;;;-8.69;51.44;100540.09;5026320;28;20555;-66
2022/12/14 04:35:25;;;;;;;41.38;14.88;;;;;;;-8.66;51.30;100530.03;5024710;28;20072;-67
2022/12/14 04:37:58;;;;;;;29.35;13.75;;;;;;;-8.79;50.98;100533.84;5041203;28;20216;-67
2022/12/14 04:40:31;;;;;;;41.67;14.20;;;;;;;-8.94;51.15;100526.59;5035115;28;20063;-68
2022/12/14 04:43:02;;;;;;;30.50;13.27;;;;;;;-8.91;51.05;100534.28;5039985;28;20053;-67
2022/12/14 04:45:33;;;;;;;44.50;15.38;;;;;;;-8.95;51.24;100541.72;5025026;28;20495;-67
2022/12/14 04:48:09;;;;;;;40.15;13.73;;;;;;;-9.06;51.16;100535.44;5023350;28;20449;-67
2022/12/14 04:50:43;;;;;;;35.28;14.32;;;;;;;-9.04;51.13;100531.28;5042644;28;20570;-67
2022/12/14 04:53:14;;;;;;;27.17;12.75;;;;;;;-9.06;50.97;100523.63;5024761;28;20521;-69
2022/12/14 04:55:47;;;;;;;27.35;12.40;;;;;;;-9.18;51.18;100528.28;5025410;28;20151;-69
2022/12/14 04:58:21;;;;;;;35.65;13.15;;;;;;;-9.20;51.38;100522.31;5025722;28;20041;-69
2022/12/14 05:01:11;;;;;;;32.92;11.85;;;;;;;-9.31;51.18;100527.84;5025949;28;20033;-69
2022/12/14 05:03:54;;;;;;;26.80;12.05;;;;;;;-9.39;51.23;100523.31;5025525;28;20518;-69
2022/12/14 05:06:33;;;;;;;30.70;12.45;;;;;;;-9.47;51.23;100515.44;5024820;28;20095;-68
2022/12/14 05:09:02;;;;;;;27.33;11.85;;;;;;;-9.39;50.84;100513.19;5024727;28;20490;-68
2022/12/14 05:11:40;;;;;;;34.03;14.75;;;;;;;-9.41;50.98;100507.19;5026847;28;20441;-68
2022/12/14 05:14:13;;;;;;;32.60;12.32;;;;;;;-9.40;51.06;100512.31;5029990;28;20053;-69
2022/12/14 05:16:39;;;;;;;37.00;13.00;;;;;;;-9.25;50.77;100504.44;5025239;28;20060;-70
2022/12/14 05:19:08;;;;;;;33.20;13.82;;;;;;;-9.42;50.86;100508.03;5005039;28;20131;-69
2022/12/14 05:21:47;;;;;;;36.20;12.00;;;;;;;-9.48;51.22;100510.31;5035168;28;20048;-70
2022/12/14 05:24:13;;;;;;;36.47;13.77;;;;;;;-9.51;50.97;100506.88;5041967;28;20041;-69
2022/12/14 05:26:38;;;;;;;33.28;12.52;;;;;;;-9.58;51.23;100510.00;5040134;28;20042;-69
2022/12/14 05:29:04;;;;;;;34.85;16.25;;;;;;;-9.59;51.03;100505.75;5025920;28;20057;-68
2022/12/14 05:31:29;;;;;;;28.30;13.07;;;;;;;-9.53;50.71;100510.16;5026997;28;20705;-68
2022/12/14 05:33:57;;;;;;;28.48;11.90;;;;;;;-9.63;50.98;100503.06;5023083;28;20045;-68
2022/12/14 05:36:23;;;;;;;38.30;13.30;;;;;;;-9.64;51.34;100506.38;5028652;28;20044;-68
2022/12/14 05:38:48;;;;;;;38.33;14.43;;;;;;;-9.60;51.20;100493.03;5023161;28;20518;-69
2022/12/14 05:41:14;;;;;;;30.83;13.50;;;;;;;-9.53;51.58;100497.50;5024696;28;20522;-68
2022/12/14 05:43:40;;;;;;;35.00;12.73;;;;;;;-9.55;51.28;100492.38;5023783;28;20040;-69
2022/12/14 05:46:06;;;;;;;35.83;14.95;;;;;;;-9.60;51.33;100493.91;5026353;28;20045;-68
2022/12/14 05:48:32;;;;;;;40.92;14.82;;;;;;;-9.60;51.35;100493.03;5044005;28;20083;-68
2022/12/14 05:51:06;;;;;;;34.60;13.32;;;;;;;-9.63;51.51;100487.88;5039155;28;20056;-68
2022/12/14 05:53:35;;;;;;;32.40;12.13;;;;;;;-9.65;51.31;100485.28;5024686;28;20053;-68
2022/12/14 05:56:01;;;;;;;39.38;14.35;;;;;;;-9.63;51.32;100490.41;5026421;28;20122;-70
2022/12/14 05:58:27;;;;;;;33.97;12.77;;;;;;;-9.50;51.28;100487.53;5026189;28;20099;-72
2022/12/14 06:00:53;;;;;;;32.33;14.65;;;;;;;-9.51;50.87;100489.16;5028780;28;20037;-71
2022/12/14 06:03:19;;;;;;;33.72;12.77;;;;;;;-9.44;50.96;100481.81;5028705;28;20447;-71
2022/12/14 06:05:44;;;;;;;35.60;13.10;;;;;;;-9.59;50.86;100480.47;5042065;28;20040;-71
2022/12/14 06:08:10;;;;;;;27.30;10.90;;;;;;;-9.67;51.00;100481.84;5031763;28;20041;-72
2022/12/14 06:10:35;;;;;;;26.67;11.18;;;;;;;-9.68;51.12;100475.03;5029522;28;20047;-70
2022/12/14 06:13:01;;;;;;;28.38;12.60;;;;;;;-9.71;51.01;100480.84;5029347;28;20141;-71
2022/12/14 06:15:27;;;;;;;34.88;12.10;;;;;;;-9.72;51.10;100479.16;5034097;28;20033;-71
2022/12/14 06:17:52;;;;;;;34.97;13.32;;;;;;;-9.74;50.72;100475.69;5028424;28;20076;-71
2022/12/14 06:20:18;;;;;;;27.30;12.10;;;;;;;-9.82;51.10;100473.69;5015749;28;20402;-72
2022/12/14 06:22:43;;;;;;;37.42;12.70;;;;;;;-9.84;51.00;100476.16;5035710;28;20492;-68
2022/12/14 06:25:09;;;;;;;27.95;12.13;;;;;;;-9.78;51.34;100468.81;5030493;28;20041;-68
2022/12/14 06:27:34;;;;;;;28.10;13.07;;;;;;;-9.85;51.34;100466.84;5027038;28;20569;-68
2022/12/14 06:29:59;;;;;;;40.20;14.50;;;;;;;-9.70;51.18;100466.56;5028898;28;20076;-68
2022/12/14 06:32:25;;;;;;;27.95;11.63;;;;;;;-9.72;50.82;100458.91;5027855;28;20057;-68
2022/12/14 06:34:51;;;;;;;40.45;13.73;;;;;;;-9.78;51.22;100458.69;5028570;28;20545;-69
2022/12/14 06:37:17;;;;;;;26.98;10.57;;;;;;;-9.63;51.15;100455.00;5028045;28;20060;-69
2022/12/14 06:39:43;;;;;;;35.28;12.40;;;;;;;-9.49;50.88;100455.47;5027713;28;20061;-69
2022/12/14 06:42:09;;;;;;;30.35;12.02;;;;;;;-9.55;50.69;100456.13;5029170;28;20087;-68
2022/12/14 06:44:34;;;;;;;31.80;12.57;;;;;;;-9.63;50.91;100452.47;5042482;28;20433;-71
2022/12/14 06:46:59;;;;;;;31.15;11.52;;;;;;;-9.66;51.23;100447.28;5041973;28;20057;-71
2022/12/14 06:49:25;;;;;;;24.30;11.52;;;;;;;-9.64;51.14;100450.72;5029618;28;20056;-71
2022/12/14 06:51:50;;;;;;;28.95;12.77;;;;;;;-9.65;51.08;100449.03;5025998;28;20036;-71
2022/12/14 06:54:17;;;;;;;35.50;12.63;;;;;;;-9.65;51.20;100444.81;5028043;28;20102;-71
2022/12/14 06:56:44;;;;;;;30.13;11.35;;;;;;;-9.65;50.98;100444.81;5026621;28;20060;-71
2022/12/14 06:59:10;;;;;;;29.83;12.52;;;;;;;-9.67;51.17;100443.03;5030330;28;20132;-72
2022/12/14 07:01:39;;;;;;;33.83;12.95;;;;;;;-9.67;51.24;100441.38;5028296;28;20033;-73
2022/12/14 07:04:06;;;;;;;34.42;11.45;;;;;;;-9.65;51.08;100434.69;5036904;28;20495;-70
2022/12/14 07:06:39;;;;;;;30.40;12.48;;;;;;;-9.67;51.56;100430.41;5028411;28;20401;-69
2022/12/14 07:09:07;;;;;;;33.95;12.57;;;;;;;-9.61;51.36;100425.53;5025217;28;20045;-69
2022/12/14 07:11:32;;;;;;;27.40;11.57;;;;;;;-9.60;51.20;100427.25;5028310;28;20251;-69
2022/12/14 07:14:05;;;;;;;27.33;11.30;;;;;;;-9.57;51.01;100427.38;5027796;28;20045;-69
2022/12/14 07:16:33;;;;;;;31.55;11.73;;;;;;;-9.58;51.09;100430.72;5035714;28;20030;-69
2022/12/14 07:18:59;;;;;;;25.95;10.85;;;;;;;-9.61;51.06;100433.13;5027110;28;20105;-69
2022/12/14 07:21:25;;;;;;;28.38;11.90;;;;;;;-9.63;51.10;100432.22;5028396;28;20029;-68
2022/12/14 07:23:51;;;;;;;30.13;11.95;;;;;;;-9.62;51.09;100436.47;5040223;28;20510;-70
2022/12/14 07:26:25;;;;;;;26.15;11.30;;;;;;;-9.58;51.04;100430.72;5028465;28;20048;-69
2022/12/14 07:28:51;;;;;;;26.92;11.15;;;;;;;-9.57;50.96;100423.19;5035234;28;20037;-69
2022/12/14 07:31:23;;;;;;;30.33;11.63;;;;;;;-9.51;50.99;100422.53;5028966;28;20029;-67
2022/12/14 07:33:52;;;;;;;31.83;11.13;;;;;;;-9.50;50.77;100419.19;5028255;28;20091;-68
2022/12/14 07:36:19;;;;;;;30.33;10.35;;;;;;;-9.49;50.92;100420.91;5038398;28;20337;-68
2022/12/14 07:38:47;;;;;;;23.88;12.73;;;;;;;-9.47;50.96;100424.34;5027499;28;20103;-68
2022/12/14 07:41:18;;;;;;;33.30;9.55;;;;;;;-9.47;51.22;100429.41;5037037;28;20037;-71
2022/12/14 07:43:43;;;;;;;29.17;11.65;;;;;;;-9.40;50.91;100422.91;5028649;28;20072;-70
2022/12/14 07:46:12;;;;;;;28.30;11.65;;;;;;;-9.41;50.95;100421.16;5028517;28;20496;-69
2022/12/14 07:48:41;;;;;;;26.70;11.35;;;;;;;-9.40;50.94;100420.38;5025976;28;20037;-70
2022/12/14 07:51:09;;;;;;;30.13;11.77;;;;;;;-9.37;51.12;100425.53;5019050;28;20330;-69
2022/12/14 07:53:36;;;;;;;30.50;10.55;;;;;;;-9.41;51.19;100422.03;5025374;28;20386;-69
2022/12/14 07:56:13;;;;;;;38.85;12.88;;;;;;;-9.40;51.09;100423.75;5028495;28;20043;-70
2022/12/14 07:58:39;;;;;;;31.75;12.13;;;;;;;-9.31;50.95;100431.66;5023840;28;20059;-69
2022/12/14 08:01:16;;;;;;;25.15;11.32;;;;;;;-9.23;50.81;100434.47;5026690;28;20025;-69
2022/12/14 08:03:45;;;;;;;24.55;8.98;;;;;;;-9.22;50.60;100431.09;5022997;28;20044;-70
2022/12/14 08:06:12;;;;;;;32.67;12.88;;;;;;;-9.24;50.84;100424.28;5028495;28;20037;-69
2022/12/14 08:08:39;;;;;;;31.83;12.45;;;;;;;-9.18;50.98;100427.03;5026919;28;20044;-69
2022/12/14 08:11:05;;;;;;;28.75;11.68;;;;;;;-9.03;50.88;100419.94;5026106;28;20387;-70
2022/12/14 08:13:31;;;;;;;24.63;9.98;;;;;;;-8.92;50.56;100416.06;5028882;28;20112;-70
2022/12/14 08:16:05;;;;;;;28.55;11.65;;;;;;;-8.85;50.55;100417.13;5026490;28;20453;-70
2022/12/14 08:18:32;;;;;;;25.02;10.55;;;;;;;-8.76;50.40;100414.03;5026109;28;20053;-70
2022/12/14 08:20:58;;;;;;;27.85;10.80;;;;;;;-8.69;50.46;100418.47;5025839;28;20132;-70
2022/12/14 08:23:23;;;;;;;27.67;10.40;;;;;;;-8.63;50.35;100421.22;5024566;28;20501;-69
2022/12/14 08:25:53;;;;;;;31.52;11.45;;;;;;;-8.57;50.57;100416.31;5027667;28;20091;-70
2022/12/14 08:28:19;;;;;;;28.98;10.73;;;;;;;-8.51;50.42;100420.72;5028244;28;20044;-70
2022/12/14 08:30:48;;;;;;;25.98;10.98;;;;;;;-8.45;50.27;100418.38;5023217;28;20029;-70
2022/12/14 08:33:13;;;;;;;25.10;10.27;;;;;;;-8.30;50.10;100423.03;5027930;28;20049;-70
2022/12/14 08:35:39;;;;;;;33.72;11.38;;;;;;;-8.16;49.81;100420.88;5024024;28;20095;-70
2022/12/14 08:38:04;;;;;;;34.50;11.25;;;;;;;-8.03;49.46;100422.97;5027976;28;20059;-69
2022/12/14 08:40:33;;;;;;;24.50;9.82;;;;;;;-8.03;49.75;100417.91;5025847;28;20032;-69
2022/12/14 08:42:58;;;;;;;25.13;10.57;;;;;;;-7.88;49.44;100428.47;5027461;28;20391;-70
2022/12/14 08:45:23;;;;;;;25.60;9.52;;;;;;;-7.71;50.06;100426.44;5041947;28;20044;-70
2022/12/14 08:47:49;;;;;;;25.00;10.57;;;;;;;-6.94;49.65;100418.25;5023486;28;20516;-69
2022/12/14 08:50:14;;;;;;;31.42;11.63;;;;;;;-5.99;46.80;100415.28;5026748;28;20041;-69
2022/12/14 08:52:40;;;;;;;25.42;9.25;;;;;;;-5.54;46.28;100411.06;5021544;28;20045;-69
2022/12/14 08:55:06;;;;;;;32.97;9.60;;;;;;;-5.52;45.16;100406.03;5024611;28;20171;-70
2022/12/14 08:57:32;;;;;;;22.35;9.40;;;;;;;-5.55;44.18;100401.69;5024371;28;20127;-70
2022/12/14 08:59:57;;;;;;;25.55;10.30;;;;;;;-5.77;44.04;100403.00;5024453;28;20037;-70
2022/12/14 09:02:23;;;;;;;28.67;11.35;;;;;;;-6.09;44.63;100405.75;5002624;28;20100;-69
2022/12/14 09:04:48;;;;;;;19.23;8.90;;;;;;;-6.27;45.52;100410.44;5002598;28;20065;-70
2022/12/14 09:07:14;;;;;;;26.10;9.00;;;;;;;-6.43;45.60;100409.25;5004094;28;20081;-70
2022/12/14 09:09:39;;;;;;;25.85;9.32;;;;;;;-6.56;45.86;100400.50;5002061;28;20061;-70
2022/12/14 09:12:06;;;;;;;23.23;9.98;;;;;;;-6.68;46.76;100396.00;5005441;28;20049;-70
2022/12/14 09:14:33;;;;;;;23.73;9.20;;;;;;;-6.60;47.36;100398.69;5011718;28;20041;-69
2022/12/14 09:16:59;;;;;;;23.73;9.63;;;;;;;-6.44;47.44;100395.69;5011735;28;20075;-70
2022/12/14 09:19:24;;;;;;;26.33;9.82;;;;;;;-6.24;47.10;100395.25;5002512;28;20029;-70
2022/12/14 09:21:50;;;;;;;29.15;10.32;;;;;;;-6.14;46.96;100394.63;5002020;28;20446;-69
2022/12/14 09:24:15;;;;;;;21.63;8.55;;;;;;;-6.12;47.11;100392.13;5002869;28;20721;-70
2022/12/14 09:26:41;;;;;;;23.13;9.13;;;;;;;-6.08;47.15;100397.31;5001091;28;20075;-70
2022/12/14 09:29:06;;;;;;;17.02;7.90;;;;;;;-5.85;46.89;100386.72;5003682;28;20091;-70
2022/12/14 09:31:34;;;;;;;26.92;9.45;;;;;;;-5.36;47.07;100387.63;4998075;28;20034;-70
2022/12/14 09:34:00;;;;;;;30.25;11.10;;;;;;;-5.11;45.52;100382.94;4989579;28;20674;-70
2022/12/14 09:36:29;;;;;;;21.90;9.05;;;;;;;-4.71;44.83;100381.88;5008634;28;20169;-70
2022/12/14 09:38:56;;;;;;;31.50;10.70;;;;;;;-4.56;43.97;100373.59;5008187;28;20033;-70
2022/12/14 09:41:34;;;;;;;21.85;9.02;;;;;;;-4.15;41.96;100371.59;5007623;28;20092;-70
2022/12/14 09:44:53;;;;;;;23.02;10.85;;;;;;;-3.94;42.69;100360.78;5006361;28;20562;-71
2022/12/14 09:47:35;;;;;;;22.27;7.85;;;;;;;-3.59;42.09;100367.94;4987470;28;20554;-70
2022/12/14 09:50:11;;;;;;;16.57;6.30;;;;;;;-3.20;41.39;100366.63;5005116;28;20060;-70
2022/12/14 09:52:44;;;;;;;26.10;8.35;;;;;;;-3.05;41.08;100351.41;5020364;28;20049;-70
2022/12/14 09:55:28;;;;;;;20.40;8.93;;;;;;;-2.40;40.59;100361.19;5005022;28;20036;-70
2022/12/14 09:58:12;;;;;;;22.40;8.20;;;;;;;-2.43;39.55;100356.91;5006812;28;20041;-70
2022/12/14 10:00:45;;;;;;;18.58;7.60;;;;;;;-2.45;40.41;100354.38;5007184;28;20030;-70
2022/12/14 10:03:30;;;;;;;20.58;8.98;;;;;;;-2.28;39.91;100346.75;5017986;28;20115;-71
2022/12/14 10:06:04;;;;;;;25.63;9.15;;;;;;;-2.37;40.36;100351.84;5057745;28;21201;-70
2022/12/14 10:09:02;;;;;;;18.10;7.15;;;;;;;-2.53;40.84;100350.06;5028392;28;20471;-70
2022/12/14 10:11:49;;;;;;;15.57;7.65;;;;;;;-2.30;40.96;100345.91;5030072;28;20029;-70
2022/12/14 10:14:42;;;;;;;23.48;8.15;;;;;;;-2.72;41.46;100344.81;5026721;28;20147;-70
2022/12/14 10:17:40;;;;;;;20.98;7.28;;;;;;;-2.41;42.23;100342.44;5028690;28;20045;-70
2022/12/14 10:20:41;;;;;;;19.63;7.00;;;;;;;-2.97;42.71;100340.38;5029677;28;20648;-69
2022/12/14 10:23:13;;;;;;;16.58;7.50;;;;;;;-3.16;44.65;100340.25;5030674;28;20049;-71
2022/12/14 10:25:39;;;;;;;16.95;7.55;;;;;;;-2.66;42.60;100333.78;5028198;28;20413;-70
2022/12/14 10:28:27;;;;;;;21.00;7.07;;;;;;;-2.70;42.25;100339.72;5037116;28;20059;-70
2022/12/14 10:31:00;;;;;;;14.70;6.05;;;;;;;-2.64;42.54;100335.47;4993648;28;20131;-70
2022/12/14 10:33:30;;;;;;;17.13;7.47;;;;;;;-2.58;42.02;100338.91;5040892;28;20088;-70
2022/12/14 10:36:13;;;;;;;14.95;6.45;;;;;;;-2.84;43.90;100332.81;5029130;28;20036;-70
2022/12/14 10:38:51;;;;;;;;;;;;;;;-3.38;43.30;100340.91;5025257;28;20642;-70
2022/12/14 10:41:51;;;;;;;19.60;6.50;;;;;;;-3.70;45.13;100344.88;5027998;28;19923;-70
2022/12/14 10:44:37;;;;;;;18.75;7.00;;;;;;;-3.49;44.91;100343.38;5026049;28;20041;-67
2022/12/14 10:47:11;;;;;;;14.05;6.15;;;;;;;-3.32;44.87;100346.06;5030191;28;20152;-70
2022/12/14 10:49:50;;;;;;;16.63;6.25;;;;;;;-3.25;44.79;100337.59;5030685;28;20211;-69
2022/12/14 10:52:20;;;;;;;16.25;6.28;;;;;;;-3.42;45.16;100340.03;5030696;28;20049;-73
2022/12/14 10:54:54;;;;;;;17.08;7.18;;;;;;;-3.15;44.91;100341.09;5045042;28;20051;-75
2022/12/14 10:57:27;;;;;;;13.98;6.13;;;;;;;-3.15;44.50;100339.41;5030752;28;20091;-74
2022/12/14 10:59:58;;;;;;;10.98;5.85;;;;;;;-2.85;44.31;100332.78;5044118;28;20041;-69
2022/12/14 11:02:28;;;;;;;11.02;4.88;;;;;;;-2.83;43.62;100331.09;5032961;28;20483;-70
2022/12/14 11:04:58;;;;;;;10.80;4.13;;;;;;;-2.68;44.33;100326.06;5027200;28;20036;-69
2022/12/14 11:07:32;;;;;;;15.48;5.10;;;;;;;-2.85;43.82;100322.56;5027702;28;20421;-69
2022/12/14 11:10:13;;;;;;;11.90;4.70;;;;;;;-2.67;43.45;100322.69;5032544;28;20032;-69
2022/12/14 11:12:39;;;;;;;13.02;6.03;;;;;;;-2.22;43.06;100326.31;5027658;28;20053;-69
2022/12/14 11:15:23;;;;;;;12.23;5.80;;;;;;;-1.82;42.47;100330.72;5032035;28;20394;-68
2022/12/14 11:17:59;;;;;;;9.65;5.15;;;;;;;-1.77;42.14;100333.28;5027359;28;20042;-69
2022/12/14 11:20:25;;;;;;;13.30;4.57;;;;;;;-1.72;41.06;100331.56;5027928;28;20037;-68
2022/12/14 11:22:57;;;;;;;19.33;6.13;;;;;;;-1.24;40.79;100333.34;5027426;28;20095;-69
2022/12/14 11:25:26;;;;;;;12.98;6.25;;;;;;;-1.22;41.07;100328.19;5035419;28;20071;-69
2022/12/14 11:27:52;;;;;;;14.38;5.70;;;;;;;-0.99;39.33;100333.38;5026605;28;20077;-69
2022/12/14 11:30:19;;;;;;;14.25;6.35;;;;;;;-0.83;39.05;100324.78;5029248;28;20041;-68
2022/12/14 11:32:47;;;;;;;11.93;5.63;;;;;;;-1.12;38.15;100318.81;5027495;28;20262;-68
2022/12/14 11:35:19;;;;;;;11.57;5.07;;;;;;;-0.95;39.11;100317.13;5031732;28;20132;-69
2022/12/14 11:37:48;;;;;;;14.57;5.90;;;;;;;-0.69;38.57;100309.34;5028517;28;20052;-68
2022/12/14 11:40:24;;;;;;;14.18;5.93;;;;;;;-1.07;39.19;100317.09;5044021;28;20040;-69
2022/12/14 11:42:55;;;;;;;13.10;6.03;;;;;;;-0.96;39.47;100320.53;5028640;28;20056;-68